North Petersburg, New York
Current Conditions -  °F | °C
As of 3:52 AM on Monday 22 Dec 2014 (Local Time) from KAQW Reporting Station
Haze Haze  
Wind Chill: 28°   Ceiling: 2000
Heat Index: 28°   Visibility: 5mi
Dew Point: 26°   Wind: 0mph
Humidity: 92%   Direction: NA
Pressure: 30.33"   Gusts: NA
Location:  42.7192°N, 73.3641°W
Report Text: KAQW 220852Z AUTO 00000KT 5SM BR OVC020 M02/M03 A3033 RMK AO2 SLP280 60000 T10221033 58003 $
Loading
Personal Weather Stations






























Interactive Weather Map New forecast layout! Learn more

10-Day Weather Forecast

Advertisements
Track Severe Weather on mobile